Terminal Aerodrome Forecast
Issued by NWS

Home | Current Version | Previous Version | Text Only | Print | Product List | Glossary On
Versions: 1 2 3 4 5 6 7 8 9 10 11 12 13 14 15 16 17 18 19 20 21 22 23 24 25 26 27 28 29 30 31 32 33 34 35 36 37 38 39 40 41 42 43 44 45 46 47 48 49 50
065
FTUS44 KHGX 282100 AAA
TAFSGR
TAF AMD
KSGR 282100Z 2821/2918 16019G29KT P6SM SKC
     FM290300 15015KT P6SM BKN025
     FM290800 15012KT P6SM VCSH BKN012
     FM291400 15013G22KT P6SM VCTS BKN020CB BKN030 OVC250
      TEMPO 2914/2918 VRB10G25KT 3SM SHRA BKN025 OVC060=

USA.gov is the U.S. government's official web portal to all federal, state and local government web resources and services.